Rex, North Carolina
Current Conditions -  °F | °C
As of 6:53 AM on Friday 19 Dec 2014 (Local Time) from KFAY Reporting Station
Few Clouds Few Clouds  
Wind Chill: 37°   Ceiling: Unl
Heat Index: 37°   Visibility: 10mi
Dew Point: 33°   Wind: 0mph
Humidity: 86%   Direction: NA
Pressure: 30.13"   Gusts: NA
Location:  34.86°N, 79.05°W
Report Text: KFAY 191153Z AUTO 00000KT 10SM FEW060 03/01 A3013 RMK AO2 SLP201 T00280006 10050 20022 53011
Loading
Personal Weather Stations






























Interactive Weather Map New forecast layout! Learn more

10-Day Weather Forecast

Advertisements
Track Severe Weather on mobile